METEO Meyenheim

 Latitude N 47° 54' 42"    Longitude E 07° 21' 22"    Altitude 210 m

PWS FWI
Legend:
Low (0-210)
Very High (490 - 630)

Moderate (210 - 350)
Extreme (630+)

High (350 - 490)


 
151.31
Date Temp. (°C) Wind Speed (km/h) Rain (mm) RH Days Since Rain pwsFWI
29/03/20 10.20 18.70 4.20 0.50 0 151.31
28/03/20 20.90 10.10 0.00 0.34 6 182.68
27/03/20 14.50 7.90 0.00 0.39 5 148.80
26/03/20 9.20 14.40 0.00 0.42 4 141.38
25/03/20 10.80 18.00 0.00 0.27 3 148.35
24/03/20 12.10 17.30 0.00 0.23 2 126.60
23/03/20 12.80 15.10 0.00 0.17 1 104.62
22/03/20 11.50 17.30 1.20 0.41 0 89.36
21/03/20 10.80 15.90 0.00 0.77 11 116.73
20/03/20 20.10 10.80 0.00 0.46 10 129.92
19/03/20 20.80 5.00 0.00 0.46 9 109.41
18/03/20 20.60 5.80 0.00 0.41 8 126.02
17/03/20 19.40 3.60 0.00 0.45 7 131.80
16/03/20 20.20 9.40 0.00 0.32 6 134.47
15/03/20 20.30 7.90 0.00 0.37 5 112.72
14/03/20 13.30 4.30 0.00 0.40 4 103.89
13/03/20 14.50 13.00 0.00 0.28 3 111.64
12/03/20 16.60 14.40 0.00 0.57 2 88.01
11/03/20 15.30 15.10 0.00 0.76 1 63.67
10/03/20 11.60 17.30 0.20 0.80 0 50.10
09/03/20 12.70 10.80 0.00 0.50 3 61.31
08/03/20 13.10 11.50 0.00 0.52 2 55.20
07/03/20 11.30 5.80 0.00 0.47 1 26.87
06/03/20 7.50 26.00 1.40 0.81 0 22.76
05/03/20 9.70 21.60 18.60 0.74 0 22.15
04/03/20 12.10 10.10 0.00 0.38 2 40.14
03/03/20 9.10 10.10 0.00 0.54 1 11.72
02/03/20 6.80 10.10 5.20 0.75 0 1.66
01/03/20 15.00 25.20 1.20 0.44 0 43.80
29/02/20 17.20 26.70 1.60 0.45 0 74.40
CumulusUtils Version 2.4.5 - generated at 30/03/2020 00:00 - © Hans Rottier
Science background here. - NOTE: Behavioural testing still under way!
Prediction courtesy of https://www.yourweather.co.uk/


Mise à jour : 30/03/2020 17:42:28
powered by Cumulus v3.4.6 (3070)